createdAt,value
2023-03-02T00:00:44.182Z,71.30
2023-03-02T00:03:10.922Z,72.10
2023-03-02T00:05:37.685Z,71.40
2023-03-02T00:08:04.564Z,71.40
2023-03-02T00:10:31.216Z,71.40
2023-03-02T00:12:58.448Z,71.50
2023-03-02T00:15:25.237Z,71.50
2023-03-02T00:17:51.936Z,71.50
2023-03-02T00:20:18.635Z,71.40
2023-03-02T00:22:46.362Z,71.20
2023-03-02T00:25:15.023Z,71.10
2023-03-02T00:27:41.878Z,71.10
2023-03-02T00:30:09.366Z,71.10
2023-03-02T00:32:36.195Z,71.00
2023-03-02T00:35:02.904Z,71.20
2023-03-02T00:37:29.637Z,71.20
2023-03-02T00:39:56.346Z,71.30
2023-03-02T00:42:23.148Z,71.40
2023-03-02T00:44:49.899Z,71.40
2023-03-02T00:47:17.024Z,71.30
2023-03-02T00:49:48.930Z,71.30
2023-03-02T00:52:17.105Z,71.20
2023-03-02T00:54:44.098Z,71.00
2023-03-02T00:57:11.467Z,70.90
2023-03-02T00:59:38.834Z,70.90
2023-03-02T01:02:05.731Z,70.90
2023-03-02T01:04:37.640Z,70.90
2023-03-02T01:07:07.062Z,71.00
2023-03-02T01:09:33.873Z,71.00
2023-03-02T01:12:00.658Z,71.20
2023-03-02T01:14:27.503Z,71.40
2023-03-02T01:16:54.359Z,71.50
2023-03-02T01:19:21.088Z,71.30
2023-03-02T01:21:48.272Z,71.30
2023-03-02T01:24:14.964Z,71.00
2023-03-02T01:26:41.632Z,71.10
2023-03-02T01:29:08.400Z,71.10
2023-03-02T01:31:35.136Z,71.00
2023-03-02T01:34:01.832Z,71.10
2023-03-02T01:36:28.531Z,71.20
2023-03-02T01:38:55.354Z,71.20
2023-03-02T01:41:22.116Z,71.30
2023-03-02T01:43:49.307Z,71.40
2023-03-02T01:46:20.109Z,71.40
2023-03-02T01:48:54.572Z,71.50
2023-03-02T01:51:23.226Z,71.40
2023-03-02T01:53:56.840Z,71.30
2023-03-02T01:56:25.561Z,71.20
2023-03-02T01:58:54.805Z,71.00
2023-03-02T02:01:21.812Z,71.10
2023-03-02T02:03:50.622Z,71.00
2023-03-02T02:06:24.590Z,71.10
2023-03-02T02:08:51.418Z,71.10
2023-03-02T02:11:20.476Z,71.10
2023-03-02T02:13:47.205Z,71.30
2023-03-02T02:16:13.931Z,71.30
2023-03-02T02:18:40.833Z,71.30
2023-03-02T02:21:08.533Z,71.40
2023-03-02T02:23:53.737Z,71.30
2023-03-02T02:26:41.729Z,71.00
2023-03-02T02:29:14.449Z,70.90
2023-03-02T02:32:02.346Z,70.90
2023-03-02T02:34:53.750Z,70.70
2023-03-02T02:37:24.527Z,70.60
2023-03-02T02:39:52.492Z,70.70
2023-03-02T02:42:28.629Z,70.80
2023-03-02T02:44:57.016Z,70.90
2023-03-02T02:47:23.779Z,71.00
2023-03-02T02:49:53.129Z,71.00
2023-03-02T02:52:23.097Z,70.80
2023-03-02T02:54:51.929Z,70.90
2023-03-02T02:57:19.093Z,70.70
2023-03-02T02:59:52.070Z,71.40
2023-03-02T03:02:23.992Z,70.70
2023-03-02T03:04:51.199Z,70.40
2023-03-02T03:07:24.031Z,70.40
2023-03-02T03:10:08.854Z,70.50
2023-03-02T03:12:35.632Z,70.40
2023-03-02T03:15:02.395Z,70.70
2023-03-02T03:17:29.104Z,70.80
2023-03-02T03:20:06.319Z,70.90
2023-03-02T03:22:36.920Z,70.90
2023-03-02T03:25:04.018Z,70.80
2023-03-02T03:27:30.766Z,70.80
2023-03-02T03:29:57.431Z,70.70
2023-03-02T03:32:25.714Z,70.70
2023-03-02T03:34:52.432Z,70.70
2023-03-02T03:37:19.543Z,70.70
2023-03-02T03:39:46.390Z,70.80
2023-03-02T03:42:13.121Z,70.80
2023-03-02T03:44:39.789Z,70.80
2023-03-02T03:47:06.470Z,70.70
2023-03-02T03:49:33.120Z,70.70
2023-03-02T03:51:59.854Z,70.70
2023-03-02T03:54:26.833Z,70.70
2023-03-02T03:56:53.499Z,70.80
2023-03-02T03:59:22.209Z,70.70
2023-03-02T04:01:57.041Z,71.60
2023-03-02T04:04:27.095Z,70.90
2023-03-02T04:06:53.941Z,70.90
2023-03-02T04:09:21.146Z,70.90
2023-03-02T04:11:48.962Z,70.80
2023-03-02T04:14:15.807Z,70.80
2023-03-02T04:16:42.584Z,70.70
2023-03-02T04:19:09.483Z,70.70
2023-03-02T04:21:38.090Z,70.60
2023-03-02T04:24:05.034Z,70.50
2023-03-02T04:26:32.185Z,70.50
2023-03-02T04:28:59.068Z,70.70
2023-03-02T04:31:26.034Z,70.90
2023-03-02T04:33:53.340Z,71.10
2023-03-02T04:36:20.099Z,71.00
2023-03-02T04:38:47.257Z,71.00
2023-03-02T04:41:13.993Z,70.80
2023-03-02T04:43:40.645Z,70.90
2023-03-02T04:46:07.445Z,70.80
2023-03-02T04:48:34.238Z,70.90
2023-03-02T04:51:02.120Z,70.90
2023-03-02T04:53:29.946Z,70.90
2023-03-02T04:55:56.648Z,71.00
2023-03-02T04:58:23.299Z,71.00
2023-03-02T05:00:49.950Z,71.10
2023-03-02T05:03:16.608Z,71.00
2023-03-02T05:05:43.261Z,71.10
2023-03-02T05:08:09.928Z,70.90
2023-03-02T05:10:36.603Z,70.80
2023-03-02T05:13:05.049Z,70.70
2023-03-02T05:15:34.506Z,70.70
2023-03-02T05:18:01.700Z,70.60
2023-03-02T05:20:30.521Z,70.40
2023-03-02T05:23:00.477Z,70.40
2023-03-02T05:25:29.045Z,70.60
2023-03-02T05:27:56.549Z,70.60
2023-03-02T05:30:23.388Z,70.50
2023-03-02T05:32:50.475Z,70.30
2023-03-02T05:35:17.206Z,70.20
2023-03-02T05:37:44.837Z,70.10
2023-03-02T05:40:16.745Z,70.10
2023-03-02T05:42:43.673Z,70.00
2023-03-02T05:45:16.492Z,69.90
2023-03-02T05:47:43.193Z,70.00
2023-03-02T05:50:10.402Z,69.80
2023-03-02T05:52:37.100Z,69.90
2023-03-02T05:55:03.979Z,69.90
2023-03-02T05:57:31.440Z,70.00
2023-03-02T05:59:58.124Z,70.00
2023-03-02T06:02:24.846Z,69.80
2023-03-02T06:04:51.535Z,69.80
2023-03-02T06:07:18.227Z,69.70
2023-03-02T06:09:44.975Z,69.50
2023-03-02T06:12:11.644Z,69.30
2023-03-02T06:14:38.328Z,69.30
2023-03-02T06:17:04.979Z,69.30
2023-03-02T06:19:32.582Z,69.60
2023-03-02T06:21:59.340Z,69.60
2023-03-02T06:24:26.041Z,69.70
2023-03-02T06:26:55.772Z,69.70
2023-03-02T06:29:22.617Z,69.60
2023-03-02T06:31:49.361Z,69.50
2023-03-02T06:34:16.064Z,69.20
2023-03-02T06:36:42.746Z,69.10
2023-03-02T06:39:15.691Z,69.10
2023-03-02T06:41:45.853Z,69.80
2023-03-02T06:44:13.055Z,68.90
2023-03-02T06:46:39.868Z,68.90
2023-03-02T06:49:06.835Z,69.00
2023-03-02T06:51:34.253Z,69.20
2023-03-02T06:54:01.072Z,69.30
2023-03-02T06:56:27.844Z,69.40
2023-03-02T06:58:54.508Z,69.30
2023-03-02T07:01:21.319Z,69.60
2023-03-02T07:03:48.151Z,69.10
2023-03-02T07:06:15.095Z,69.10
2023-03-02T07:08:41.817Z,69.10
2023-03-02T07:11:10.661Z,69.20
2023-03-02T07:13:38.808Z,69.10
2023-03-02T07:16:09.983Z,69.20
2023-03-02T07:18:37.744Z,69.20
2023-03-02T07:21:04.629Z,69.10
2023-03-02T07:23:31.289Z,69.20
2023-03-02T07:25:57.965Z,69.00
2023-03-02T07:28:25.436Z,68.90
2023-03-02T07:30:55.948Z,69.10
2023-03-02T07:33:22.760Z,69.20
2023-03-02T07:35:49.530Z,69.30
2023-03-02T07:38:16.434Z,69.50
2023-03-02T07:40:43.311Z,69.50
2023-03-02T07:43:10.232Z,69.50
2023-03-02T07:45:38.825Z,69.60
2023-03-02T07:48:06.932Z,69.50
2023-03-02T07:50:34.408Z,69.10
2023-03-02T07:53:01.399Z,69.20
2023-03-02T07:55:33.694Z,69.20
2023-03-02T07:58:01.568Z,69.60
2023-03-02T08:00:28.363Z,70.00
2023-03-02T08:02:55.195Z,70.20
2023-03-02T08:05:21.901Z,70.50
2023-03-02T08:07:48.804Z,70.60
2023-03-02T08:10:15.722Z,71.40
2023-03-02T08:12:43.049Z,72.20
2023-03-02T08:15:10.625Z,72.40
2023-03-02T08:17:38.734Z,72.90
2023-03-02T08:20:06.441Z,73.00
2023-03-02T08:22:33.549Z,73.10
2023-03-02T08:25:00.240Z,73.20
2023-03-02T08:27:29.187Z,73.60
2023-03-02T08:29:56.792Z,73.60
2023-03-02T08:32:23.609Z,73.50
2023-03-02T08:34:51.866Z,74.30
2023-03-02T08:37:19.270Z,74.20
2023-03-02T08:39:46.143Z,74.10
2023-03-02T08:42:12.820Z,73.80
2023-03-02T08:44:39.543Z,73.80
2023-03-02T08:47:08.180Z,73.90
2023-03-02T08:49:34.888Z,74.00
2023-03-02T08:52:01.708Z,73.90
2023-03-02T08:54:28.490Z,73.80
2023-03-02T08:56:55.237Z,74.00
2023-03-02T08:59:22.002Z,73.90
2023-03-02T09:01:48.795Z,74.00
2023-03-02T09:04:15.642Z,73.80
2023-03-02T09:06:43.480Z,74.00
2023-03-02T09:09:10.775Z,73.20
2023-03-02T09:11:38.781Z,74.40
2023-03-02T09:14:06.609Z,74.00
2023-03-02T09:16:34.085Z,74.30
2023-03-02T09:19:00.811Z,74.30
2023-03-02T09:21:27.540Z,74.30
2023-03-02T09:23:58.068Z,74.90
2023-03-02T09:26:26.281Z,74.90
2023-03-02T09:28:53.277Z,74.30
2023-03-02T09:31:20.531Z,74.20
2023-03-02T09:33:47.557Z,74.70
2023-03-02T09:36:21.072Z,74.80
2023-03-02T09:38:48.236Z,76.00
2023-03-02T09:41:21.402Z,75.70
2023-03-02T09:43:56.728Z,79.50
2023-03-02T09:46:27.948Z,79.50
2023-03-02T09:49:18.171Z,82.40
2023-03-02T09:52:00.583Z,81.90
2023-03-02T09:54:27.398Z,81.90
2023-03-02T09:56:55.330Z,82.20
2023-03-02T09:59:29.104Z,82.00
2023-03-02T10:02:21.814Z,83.20
2023-03-02T10:04:50.482Z,83.20
2023-03-02T10:07:38.807Z,83.60
2023-03-02T10:10:25.793Z,83.40
2023-03-02T10:13:09.522Z,83.00
2023-03-02T10:15:39.164Z,82.60
2023-03-02T10:18:39.585Z,84.40
2023-03-02T10:21:23.223Z,85.40
2023-03-02T10:24:12.022Z,86.30
2023-03-02T10:26:44.123Z,86.50
2023-03-02T10:29:11.115Z,87.40
2023-03-02T10:31:39.791Z,87.80
2023-03-02T10:34:09.864Z,88.60
2023-03-02T10:36:41.702Z,90.00
2023-03-02T10:39:13.542Z,90.10
2023-03-02T10:41:45.327Z,90.30
2023-03-02T10:44:28.944Z,91.20
2023-03-02T10:46:56.007Z,90.40
2023-03-02T10:49:27.212Z,89.30
2023-03-02T10:52:18.175Z,87.90
2023-03-02T10:54:45.367Z,87.50
2023-03-02T10:57:28.230Z,86.60
2023-03-02T11:00:18.057Z,86.10
2023-03-02T11:02:55.501Z,85.40
2023-03-02T11:05:27.510Z,85.20
2023-03-02T11:08:11.193Z,85.00
2023-03-02T11:10:50.684Z,84.30
2023-03-02T11:13:28.707Z,85.20
2023-03-02T11:15:59.612Z,83.90
2023-03-02T11:18:58.870Z,83.00
2023-03-02T11:21:40.224Z,82.70
2023-03-02T11:24:18.985Z,81.70
2023-03-02T11:27:02.842Z,85.60
2023-03-02T11:29:45.424Z,86.60
2023-03-02T11:32:13.803Z,83.00
2023-03-02T11:34:50.926Z,84.80
2023-03-02T11:37:29.742Z,83.60
2023-03-02T11:40:06.277Z,81.50
2023-03-02T11:42:38.601Z,80.90
2023-03-02T11:45:27.613Z,80.60
2023-03-02T11:48:14.711Z,81.90
2023-03-02T11:50:52.121Z,80.70
2023-03-02T11:53:18.941Z,80.60
2023-03-02T11:55:48.458Z,81.90
2023-03-02T11:58:25.684Z,81.60
2023-03-02T12:00:52.570Z,85.10
2023-03-02T12:03:23.780Z,82.20
2023-03-02T12:05:53.458Z,81.20
2023-03-02T12:08:20.155Z,82.60
2023-03-02T12:11:26.277Z,80.90
2023-03-02T12:13:59.314Z,80.00
2023-03-02T12:16:37.799Z,80.50
2023-03-02T12:19:29.436Z,81.10
2023-03-02T12:22:02.856Z,81.00
2023-03-02T12:24:34.028Z,81.00
2023-03-02T12:27:02.491Z,80.80
2023-03-02T12:29:39.700Z,80.50
2023-03-02T12:32:14.077Z,80.20
2023-03-02T12:34:44.482Z,81.90
2023-03-02T12:37:44.287Z,81.40
2023-03-02T12:40:25.817Z,80.60
2023-03-02T12:42:58.513Z,78.90
2023-03-02T12:45:54.875Z,78.50
2023-03-02T12:48:29.288Z,78.70
2023-03-02T12:51:01.316Z,78.40
2023-03-02T12:53:28.402Z,77.80
2023-03-02T12:55:55.291Z,78.90
2023-03-02T12:58:24.180Z,79.90
2023-03-02T13:01:01.763Z,82.70
2023-03-02T13:03:30.194Z,79.90
2023-03-02T13:06:05.446Z,78.80
2023-03-02T13:08:32.649Z,78.00
2023-03-02T13:11:01.557Z,77.60
2023-03-02T13:13:44.400Z,77.40
2023-03-02T13:16:32.469Z,76.90
2023-03-02T13:19:03.463Z,77.10
2023-03-02T13:21:35.467Z,78.20
2023-03-02T13:24:02.465Z,77.70
2023-03-02T13:26:29.107Z,77.40
2023-03-02T13:29:19.148Z,77.50
2023-03-02T13:31:46.007Z,76.60
2023-03-02T13:34:26.290Z,80.60
2023-03-02T13:36:53.302Z,80.10
2023-03-02T13:39:22.254Z,77.80
2023-03-02T13:41:58.799Z,78.20
2023-03-02T13:44:29.422Z,77.40
2023-03-02T13:46:56.217Z,76.90
2023-03-02T13:49:33.569Z,77.70
2023-03-02T13:52:27.617Z,78.50
2023-03-02T13:54:54.579Z,79.30
2023-03-02T13:57:32.004Z,77.80
2023-03-02T14:00:01.656Z,77.30
2023-03-02T14:02:29.224Z,78.20
2023-03-02T14:04:56.654Z,76.80
2023-03-02T14:07:23.400Z,77.00
2023-03-02T14:09:50.147Z,77.10
2023-03-02T14:12:27.514Z,77.20
2023-03-02T14:14:55.860Z,77.40
2023-03-02T14:17:24.028Z,78.00
2023-03-02T14:19:52.874Z,78.40
2023-03-02T14:22:20.182Z,78.90
2023-03-02T14:24:46.959Z,79.00
2023-03-02T14:27:16.563Z,78.90
2023-03-02T14:29:46.319Z,78.90
2023-03-02T14:32:14.086Z,78.90
2023-03-02T14:34:42.369Z,78.60
2023-03-02T14:37:13.580Z,78.20
2023-03-02T14:39:53.415Z,78.10
2023-03-02T14:42:21.024Z,78.10
2023-03-02T14:44:48.385Z,78.30
2023-03-02T14:47:16.615Z,78.70
2023-03-02T14:49:43.511Z,79.00
2023-03-02T14:52:23.301Z,79.30
2023-03-02T14:54:52.598Z,79.40
2023-03-02T14:57:21.586Z,79.30
2023-03-02T14:59:48.640Z,79.50
2023-03-02T15:02:24.671Z,79.30
2023-03-02T15:04:56.151Z,79.00
2023-03-02T15:07:23.295Z,78.70
2023-03-02T15:09:49.997Z,78.80
2023-03-02T15:12:16.699Z,78.70
2023-03-02T15:14:43.456Z,79.50
2023-03-02T15:17:11.639Z,78.70
2023-03-02T15:19:38.373Z,78.40
2023-03-02T15:22:05.120Z,78.60
2023-03-02T15:24:33.395Z,78.70
2023-03-02T15:27:00.397Z,78.80
2023-03-02T15:29:27.099Z,78.90
2023-03-02T15:31:53.934Z,78.80
2023-03-02T15:34:20.849Z,78.70
2023-03-02T15:36:47.534Z,78.80
2023-03-02T15:39:14.617Z,78.80
2023-03-02T15:41:42.649Z,78.90
2023-03-02T15:44:16.181Z,79.00
2023-03-02T15:46:42.971Z,78.90
2023-03-02T15:49:10.952Z,79.00
2023-03-02T15:51:37.957Z,79.00
2023-03-02T15:54:06.698Z,83.10
2023-03-02T15:56:43.786Z,81.90
2023-03-02T15:59:13.161Z,81.30
2023-03-02T16:01:41.852Z,81.30
2023-03-02T16:04:08.594Z,85.60
2023-03-02T16:06:35.296Z,83.10
2023-03-02T16:09:02.125Z,82.20
2023-03-02T16:11:28.861Z,81.50
2023-03-02T16:13:55.621Z,81.40
2023-03-02T16:16:22.453Z,81.30
2023-03-02T16:18:58.560Z,81.30
2023-03-02T16:21:26.521Z,81.10
2023-03-02T16:23:53.858Z,80.80
2023-03-02T16:26:21.403Z,80.70
2023-03-02T16:28:48.185Z,80.60
2023-03-02T16:31:17.454Z,80.80
2023-03-02T16:33:44.435Z,80.90
2023-03-02T16:36:12.804Z,80.90
2023-03-02T16:38:39.577Z,81.10
2023-03-02T16:41:21.770Z,81.50
2023-03-02T16:43:55.958Z,81.50
2023-03-02T16:46:23.319Z,81.60
2023-03-02T16:48:50.441Z,81.60
2023-03-02T16:51:17.385Z,81.10
2023-03-02T16:53:44.087Z,81.00
2023-03-02T16:56:13.070Z,83.30
2023-03-02T16:58:41.358Z,81.90
2023-03-02T17:01:09.490Z,82.70
2023-03-02T17:03:37.011Z,81.10
2023-03-02T17:06:05.858Z,80.90
2023-03-02T17:08:32.583Z,81.90
2023-03-02T17:10:59.246Z,84.20
2023-03-02T17:13:25.981Z,83.30
2023-03-02T17:15:53.007Z,81.60
2023-03-02T17:18:19.901Z,82.30
2023-03-02T17:20:46.568Z,82.70
2023-03-02T17:23:14.130Z,81.50
2023-03-02T17:25:42.618Z,83.00
2023-03-02T17:28:10.749Z,81.80
2023-03-02T17:30:38.615Z,82.00
2023-03-02T17:33:05.330Z,82.70
2023-03-02T17:35:32.046Z,82.30
2023-03-02T17:37:59.119Z,82.80
2023-03-02T17:40:26.100Z,83.20
2023-03-02T17:42:56.125Z,83.00
2023-03-02T17:45:25.557Z,82.20
2023-03-02T17:47:54.714Z,83.90
2023-03-02T17:50:21.914Z,82.90
2023-03-02T17:52:48.767Z,81.30
2023-03-02T17:55:15.685Z,81.00
2023-03-02T17:57:42.713Z,81.30
2023-03-02T18:00:15.449Z,82.00
2023-03-02T18:02:42.625Z,84.00
2023-03-02T18:05:10.791Z,82.60
2023-03-02T18:07:40.397Z,82.30
2023-03-02T18:10:14.160Z,81.80
2023-03-02T18:12:46.837Z,81.20
2023-03-02T18:15:20.509Z,82.20
2023-03-02T18:17:49.283Z,83.60
2023-03-02T18:20:18.560Z,84.30
2023-03-02T18:22:46.145Z,87.40
2023-03-02T18:25:15.703Z,88.10
2023-03-02T18:27:47.590Z,90.40
2023-03-02T18:30:15.198Z,87.80
2023-03-02T18:32:43.183Z,86.50
2023-03-02T18:35:12.669Z,86.10
2023-03-02T18:37:42.512Z,83.70
2023-03-02T18:40:12.236Z,87.20
2023-03-02T18:42:39.195Z,84.80
2023-03-02T18:45:07.152Z,85.70
2023-03-02T18:47:36.594Z,85.80
2023-03-02T18:50:04.157Z,88.00
2023-03-02T18:52:33.838Z,88.80
2023-03-02T18:55:00.671Z,87.30
2023-03-02T18:57:27.600Z,87.20
2023-03-02T18:59:54.320Z,90.40
2023-03-02T19:02:21.719Z,88.90
2023-03-02T19:04:49.139Z,86.70
2023-03-02T19:07:16.489Z,91.30
2023-03-02T19:09:44.675Z,87.50
2023-03-02T19:12:11.796Z,87.30
2023-03-02T19:14:43.820Z,88.50
2023-03-02T19:17:10.962Z,88.00
2023-03-02T19:19:38.056Z,88.50
2023-03-02T19:22:09.052Z,87.90
2023-03-02T19:24:35.838Z,88.70
2023-03-02T19:27:02.754Z,88.10
2023-03-02T19:29:29.501Z,87.40
2023-03-02T19:31:56.251Z,87.40
2023-03-02T19:34:23.073Z,87.00
2023-03-02T19:36:49.817Z,87.10
2023-03-02T19:39:16.661Z,86.00
2023-03-02T19:41:44.800Z,85.00
2023-03-02T19:44:13.439Z,85.70
2023-03-02T19:46:40.218Z,84.30
2023-03-02T19:49:06.912Z,83.20
2023-03-02T19:51:33.702Z,83.00
2023-03-02T19:54:03.074Z,81.80
2023-03-02T19:56:33.130Z,82.50
2023-03-02T19:59:01.419Z,81.60
2023-03-02T20:01:29.925Z,81.70
2023-03-02T20:03:57.796Z,81.60
2023-03-02T20:06:26.719Z,82.00
2023-03-02T20:08:53.833Z,81.70
2023-03-02T20:11:21.307Z,81.70
2023-03-02T20:13:48.277Z,81.40
2023-03-02T20:16:15.059Z,81.00
2023-03-02T20:18:42.626Z,80.10
2023-03-02T20:21:09.454Z,80.60
2023-03-02T20:23:36.176Z,80.20
2023-03-02T20:26:03.917Z,80.00
2023-03-02T20:28:32.968Z,79.60
2023-03-02T20:31:01.013Z,79.00
2023-03-02T20:33:30.454Z,79.00
2023-03-02T20:35:58.381Z,83.00
2023-03-02T20:38:37.377Z,81.30
2023-03-02T20:41:04.314Z,81.30
2023-03-02T20:43:31.177Z,80.40
2023-03-02T20:45:58.275Z,79.70
2023-03-02T20:48:24.989Z,79.20
2023-03-02T20:50:51.771Z,79.00
2023-03-02T20:53:18.581Z,78.60
2023-03-02T20:55:45.561Z,78.20
2023-03-02T20:58:13.838Z,77.80
2023-03-02T21:00:40.828Z,77.30
2023-03-02T21:03:07.699Z,77.50
2023-03-02T21:05:35.234Z,77.30
2023-03-02T21:08:02.158Z,77.40
2023-03-02T21:10:31.201Z,77.80
2023-03-02T21:12:57.975Z,78.00
2023-03-02T21:15:27.201Z,78.40
2023-03-02T21:17:54.684Z,78.50
2023-03-02T21:20:25.358Z,79.50
2023-03-02T21:22:52.059Z,80.10
2023-03-02T21:25:18.900Z,80.10
2023-03-02T21:27:45.678Z,80.30
2023-03-02T21:30:24.236Z,80.00
2023-03-02T21:32:51.028Z,79.60
2023-03-02T21:35:19.961Z,80.20
2023-03-02T21:37:48.472Z,80.70
2023-03-02T21:40:20.830Z,80.60
2023-03-02T21:42:47.564Z,80.70
2023-03-02T21:45:15.822Z,80.70
2023-03-02T21:47:42.647Z,80.90
2023-03-02T21:50:14.796Z,80.70
2023-03-02T21:52:42.171Z,80.30
2023-03-02T21:55:09.647Z,80.00
2023-03-02T21:57:36.540Z,80.30
2023-03-02T22:00:05.344Z,80.00
2023-03-02T22:02:32.524Z,80.10
2023-03-02T22:04:59.574Z,79.80
2023-03-02T22:07:26.676Z,79.50
2023-03-02T22:09:53.840Z,79.70
2023-03-02T22:12:20.540Z,79.60
2023-03-02T22:14:47.666Z,79.80
2023-03-02T22:17:20.231Z,80.00
2023-03-02T22:19:48.469Z,79.90
2023-03-02T22:22:22.093Z,80.10
2023-03-02T22:24:50.148Z,80.40
2023-03-02T22:27:27.963Z,80.30
2023-03-02T22:29:57.741Z,80.20
2023-03-02T22:32:25.476Z,80.30
2023-03-02T22:34:53.839Z,80.10
2023-03-02T22:37:25.580Z,80.10
2023-03-02T22:39:54.810Z,80.10
2023-03-02T22:42:26.931Z,80.20
2023-03-02T22:45:06.473Z,80.20
2023-03-02T22:47:33.266Z,80.20
2023-03-02T22:50:06.239Z,80.20
2023-03-02T22:52:37.060Z,80.30
2023-03-02T22:55:36.992Z,80.40
2023-03-02T22:58:42.547Z,80.30
2023-03-02T23:01:26.267Z,80.20
2023-03-02T23:04:08.286Z,80.10
2023-03-02T23:06:45.063Z,80.30
2023-03-02T23:09:13.162Z,80.40
2023-03-02T23:11:41.169Z,80.40
2023-03-02T23:14:20.135Z,80.30
2023-03-02T23:17:00.971Z,80.30
2023-03-02T23:19:29.042Z,81.00
2023-03-02T23:21:55.813Z,80.30
2023-03-02T23:24:22.626Z,80.40
2023-03-02T23:26:51.261Z,80.40
2023-03-02T23:29:21.896Z,80.20
2023-03-02T23:31:49.585Z,80.10
2023-03-02T23:34:16.452Z,80.10
2023-03-02T23:36:43.709Z,80.10
2023-03-02T23:39:10.508Z,80.10
2023-03-02T23:41:37.262Z,80.10
2023-03-02T23:44:04.713Z,80.20
2023-03-02T23:46:31.509Z,80.10
2023-03-02T23:48:58.212Z,80.20
2023-03-02T23:51:28.240Z,80.20
2023-03-02T23:53:55.043Z,80.20
2023-03-02T23:56:22.774Z,80.50
2023-03-02T23:58:49.604Z,80.60
